createdAt,value
2023-02-18T00:00:28.100Z,98090.22
2023-02-18T00:02:55.992Z,98075.78
2023-02-18T00:05:22.952Z,98088.72
2023-02-18T00:07:49.564Z,98087.06
2023-02-18T00:10:16.717Z,98087.88
2023-02-18T00:12:43.530Z,98081.66
2023-02-18T00:15:10.392Z,98083.13
2023-02-18T00:17:37.220Z,98084.63
2023-02-18T00:20:06.347Z,98075.41
2023-02-18T00:22:33.350Z,98084.91
2023-02-18T00:24:59.984Z,98094.13
2023-02-18T00:27:26.548Z,98088.72
2023-02-18T00:29:53.183Z,98095.50
2023-02-18T00:32:19.808Z,98095.72
2023-02-18T00:34:46.408Z,98100.09
2023-02-18T00:37:13.723Z,98092.84
2023-02-18T00:39:40.472Z,98095.25
2023-02-18T00:42:07.145Z,98096.91
2023-02-18T00:44:33.811Z,98092.44
2023-02-18T00:47:00.401Z,98089.28
2023-02-18T00:49:27.023Z,98098.94
2023-02-18T00:51:53.639Z,98107.03
2023-02-18T00:54:20.272Z,98100.19
2023-02-18T00:56:46.849Z,98101.00
2023-02-18T00:59:13.472Z,98098.94
2023-02-18T01:01:40.273Z,98102.38
2023-02-18T01:04:07.924Z,98091.34
2023-02-18T01:06:34.785Z,98084.16
2023-02-18T01:09:03.180Z,98084.16
2023-02-18T01:11:29.773Z,98084.28
2023-02-18T01:13:56.412Z,98090.78
2023-02-18T01:16:23.652Z,98097.84
2023-02-18T01:18:50.313Z,98102.56
2023-02-18T01:21:17.264Z,98099.31
2023-02-18T01:23:44.061Z,98097.72
2023-02-18T01:26:11.639Z,98096.81
2023-02-18T01:28:40.645Z,98096.81
2023-02-18T01:31:11.654Z,98091.59
2023-02-18T01:33:38.956Z,98086.66
2023-02-18T01:36:06.518Z,98090.38
2023-02-18T01:38:33.484Z,98092.91
2023-02-18T01:41:00.780Z,98088.72
2023-02-18T01:43:28.762Z,98102.72
2023-02-18T01:46:01.809Z,98086.09
2023-02-18T01:48:31.150Z,98091.41
2023-02-18T01:51:06.127Z,98080.16
2023-02-18T01:53:45.796Z,98077.63
2023-02-18T01:56:19.063Z,98078.66
2023-02-18T01:58:45.756Z,98089.09
2023-02-18T02:01:12.475Z,98075.38
2023-02-18T02:03:39.128Z,98073.44
2023-02-18T02:06:32.128Z,98070.44
2023-02-18T02:09:01.803Z,98071.19
2023-02-18T02:11:34.452Z,98076.19
2023-02-18T02:14:26.377Z,98072.47
2023-02-18T02:17:02.601Z,98072.28
2023-02-18T02:19:41.328Z,98070.81
2023-02-18T02:22:20.148Z,98060.13
2023-02-18T02:24:59.243Z,98067.28
2023-02-18T02:27:45.303Z,98055.34
2023-02-18T02:30:12.415Z,98055.97
2023-02-18T02:33:27.923Z,98051.28
2023-02-18T02:36:10.223Z,98049.78
2023-02-18T02:38:44.322Z,98033.94
2023-02-18T02:41:39.639Z,98041.13
2023-02-18T02:44:21.755Z,98040.66
2023-02-18T02:46:52.417Z,98037.50
2023-02-18T02:49:48.202Z,98038.97
2023-02-18T02:52:23.534Z,98042.03
2023-02-18T02:54:50.214Z,98034.47
2023-02-18T02:57:16.756Z,98029.09
2023-02-18T03:00:03.678Z,98024.75
2023-02-18T03:03:15.280Z,98030.59
2023-02-18T03:06:26.737Z,98027.44
2023-02-18T03:09:03.124Z,98022.75
2023-02-18T03:11:35.497Z,98022.75
2023-02-18T03:14:10.359Z,98024.41
2023-02-18T03:16:50.455Z,98025.38
2023-02-18T03:19:26.205Z,98034.81
2023-02-18T03:22:02.809Z,98030.09
2023-02-18T03:24:37.848Z,98033.31
2023-02-18T03:27:17.686Z,98042.31
2023-02-18T03:29:49.024Z,98046.50
2023-02-18T03:32:21.108Z,98032.03
2023-02-18T03:34:53.414Z,98035.38
2023-02-18T03:37:21.464Z,98027.41
2023-02-18T03:39:55.366Z,98035.84
2023-02-18T03:42:25.882Z,98021.78
2023-02-18T03:44:52.646Z,98033.13
2023-02-18T03:47:23.006Z,98037.06
2023-02-18T03:49:49.636Z,98039.31
2023-02-18T03:52:16.312Z,98035.00
2023-02-18T03:54:42.891Z,98041.97
2023-02-18T03:57:09.500Z,98038.44
2023-02-18T03:59:36.138Z,98046.34
2023-02-18T04:02:02.810Z,98049.69
2023-02-18T04:04:29.645Z,98029.41
2023-02-18T04:06:56.261Z,98050.16
2023-02-18T04:09:22.872Z,98039.78
2023-02-18T04:11:49.504Z,98049.19
2023-02-18T04:14:16.186Z,98058.00
2023-02-18T04:16:43.098Z,98053.34
2023-02-18T04:19:09.813Z,98054.81
2023-02-18T04:21:36.409Z,98056.41
2023-02-18T04:24:03.044Z,98043.75
2023-02-18T04:26:29.683Z,98038.16
2023-02-18T04:28:56.296Z,98046.91
2023-02-18T04:31:23.063Z,98044.22
2023-02-18T04:33:49.764Z,98038.38
2023-02-18T04:36:16.424Z,98028.97
2023-02-18T04:38:43.229Z,98050.56
2023-02-18T04:41:09.831Z,98035.75
2023-02-18T04:43:36.473Z,98048.31
2023-02-18T04:46:03.123Z,98042.56
2023-02-18T04:48:30.049Z,98049.63
2023-02-18T04:50:56.801Z,98039.59
2023-02-18T04:53:23.443Z,98042.19
2023-02-18T04:55:54.368Z,98031.50
2023-02-18T04:58:21.668Z,98031.09
2023-02-18T05:00:48.743Z,98037.13
2023-02-18T05:03:15.427Z,98034.53
2023-02-18T05:05:42.149Z,98025.25
2023-02-18T05:08:09.169Z,98026.66
2023-02-18T05:10:37.989Z,98040.59
2023-02-18T05:13:04.897Z,98031.03
2023-02-18T05:15:31.514Z,98038.91
2023-02-18T05:17:58.105Z,98038.09
2023-02-18T05:20:24.680Z,98033.06
2023-02-18T05:22:51.268Z,98037.72
2023-02-18T05:25:18.042Z,98039.28
2023-02-18T05:27:44.632Z,98043.81
2023-02-18T05:30:11.667Z,98044.84
2023-02-18T05:32:38.300Z,98048.34
2023-02-18T05:35:05.298Z,98054.50
2023-02-18T05:37:32.003Z,98050.25
2023-02-18T05:39:58.586Z,98048.34
2023-02-18T05:42:25.252Z,98044.91
2023-02-18T05:44:51.826Z,98047.53
2023-02-18T05:47:18.487Z,98060.38
2023-02-18T05:49:45.208Z,98054.03
2023-02-18T05:52:12.704Z,98055.91
2023-02-18T05:54:39.732Z,98057.66
2023-02-18T05:57:06.572Z,98059.16
2023-02-18T05:59:33.409Z,98064.47
2023-02-18T06:02:00.664Z,98051.00
2023-02-18T06:04:27.298Z,98060.19
2023-02-18T06:06:54.713Z,98064.47
2023-02-18T06:09:21.841Z,98064.66
2023-02-18T06:11:48.625Z,98069.63
2023-02-18T06:14:15.224Z,98078.59
2023-02-18T06:16:41.852Z,98055.47
2023-02-18T06:19:08.569Z,98058.72
2023-02-18T06:21:35.494Z,98079.69
2023-02-18T06:24:02.244Z,98066.78
2023-02-18T06:26:28.864Z,98065.06
2023-02-18T06:28:55.610Z,98064.88
2023-02-18T06:31:22.622Z,98065.13
2023-02-18T06:33:49.294Z,98084.72
2023-02-18T06:36:16.176Z,98073.19
2023-02-18T06:38:44.518Z,98073.41
2023-02-18T06:41:12.720Z,98092.81
2023-02-18T06:43:39.510Z,98084.75
2023-02-18T06:46:06.744Z,98076.19
2023-02-18T06:48:33.694Z,98090.25
2023-02-18T06:51:00.324Z,98087.22
2023-02-18T06:53:26.916Z,98081.81
2023-02-18T06:55:53.624Z,98084.81
2023-02-18T06:58:20.376Z,98088.19
2023-02-18T07:00:47.271Z,98087.22
2023-02-18T07:03:14.551Z,98098.94
2023-02-18T07:05:42.292Z,98078.31
2023-02-18T07:08:09.554Z,98082.97
2023-02-18T07:10:36.294Z,98101.00
2023-02-18T07:13:03.308Z,98085.94
2023-02-18T07:15:29.972Z,98078.09
2023-02-18T07:17:56.816Z,98086.81
2023-02-18T07:20:23.920Z,98073.75
2023-02-18T07:22:50.792Z,98087.72
2023-02-18T07:25:17.585Z,98087.38
2023-02-18T07:27:44.189Z,98083.19
2023-02-18T07:30:11.481Z,98102.88
2023-02-18T07:32:38.107Z,98102.53
2023-02-18T07:35:06.145Z,98095.53
2023-02-18T07:37:33.253Z,98108.66
2023-02-18T07:40:01.010Z,98096.13
2023-02-18T07:42:27.684Z,98109.09
2023-02-18T07:44:54.308Z,98102.94
2023-02-18T07:47:20.962Z,98105.38
2023-02-18T07:49:47.808Z,98108.53
2023-02-18T07:52:15.522Z,98112.25
2023-02-18T07:54:42.778Z,98120.09
2023-02-18T07:57:09.542Z,98108.50
2023-02-18T07:59:36.118Z,98117.75
2023-02-18T08:02:03.249Z,98112.38
2023-02-18T08:04:30.053Z,98121.34
2023-02-18T08:06:56.764Z,98120.03
2023-02-18T08:09:23.382Z,98102.69
2023-02-18T08:11:50.251Z,98114.25
2023-02-18T08:14:16.955Z,98117.59
2023-02-18T08:16:43.562Z,98112.97
2023-02-18T08:19:10.669Z,98119.84
2023-02-18T08:21:37.311Z,98128.13
2023-02-18T08:24:04.143Z,98123.72
2023-02-18T08:26:31.439Z,98131.59
2023-02-18T08:28:58.039Z,98125.88
2023-02-18T08:31:27.420Z,98116.78
2023-02-18T08:33:55.845Z,98126.00
2023-02-18T08:36:22.800Z,98127.69
2023-02-18T08:38:49.622Z,98119.38
2023-02-18T08:41:16.470Z,98121.28
2023-02-18T08:43:43.342Z,98114.94
2023-02-18T08:46:15.793Z,98130.06
2023-02-18T08:48:43.483Z,98118.22
2023-02-18T08:51:18.695Z,98121.03
2023-02-18T08:53:47.204Z,98114.81
2023-02-18T08:56:15.162Z,98128.28
2023-02-18T08:58:42.414Z,98112.34
2023-02-18T09:01:11.768Z,98116.75
2023-02-18T09:03:38.854Z,98118.31
2023-02-18T09:06:05.763Z,98116.47
2023-02-18T09:08:32.364Z,98113.72
2023-02-18T09:11:01.418Z,98106.53
2023-02-18T09:13:28.324Z,98115.84
2023-02-18T09:16:04.413Z,98111.94
2023-02-18T09:18:32.402Z,98101.16
2023-02-18T09:21:00.628Z,98097.56
2023-02-18T09:23:30.252Z,98094.59
2023-02-18T09:25:57.589Z,98090.19
2023-02-18T09:28:24.842Z,98089.59
2023-02-18T09:30:52.138Z,98082.31
2023-02-18T09:33:19.503Z,98090.34
2023-02-18T09:35:47.621Z,98096.72
2023-02-18T09:38:17.263Z,98095.06
2023-02-18T09:40:47.271Z,98096.00
2023-02-18T09:43:24.235Z,98093.44
2023-02-18T09:45:53.189Z,98093.56
2023-02-18T09:48:26.719Z,98091.00
2023-02-18T09:50:54.207Z,98080.59
2023-02-18T09:53:23.598Z,98072.31
2023-02-18T09:55:54.095Z,98070.09
2023-02-18T09:58:27.087Z,98072.28
2023-02-18T10:01:11.364Z,98070.19
2023-02-18T10:03:38.578Z,98065.28
2023-02-18T10:06:11.938Z,98067.25
2023-02-18T10:08:44.223Z,98057.19
2023-02-18T10:11:13.652Z,98063.00
2023-02-18T10:13:41.239Z,98060.13
2023-02-18T10:16:09.846Z,98043.84
2023-02-18T10:18:49.112Z,98042.34
2023-02-18T10:21:19.476Z,98040.91
2023-02-18T10:24:01.941Z,98043.25
2023-02-18T10:26:31.503Z,98037.81
2023-02-18T10:28:58.676Z,98029.03
2023-02-18T10:31:33.353Z,98024.91
2023-02-18T10:34:07.505Z,98019.69
2023-02-18T10:36:45.907Z,98013.13
2023-02-18T10:39:24.771Z,98014.91
2023-02-18T10:42:02.820Z,98010.06
2023-02-18T10:44:50.549Z,97995.97
2023-02-18T10:47:36.004Z,97991.63
2023-02-18T10:50:09.545Z,97992.88
2023-02-18T10:52:43.684Z,97996.41
2023-02-18T10:55:18.431Z,97982.63
2023-02-18T10:57:51.664Z,97977.34
2023-02-18T11:00:27.384Z,97972.75
2023-02-18T11:03:16.180Z,97973.00
2023-02-18T11:05:44.105Z,97966.81
2023-02-18T11:08:18.424Z,97957.16
2023-02-18T11:10:46.896Z,97958.97
2023-02-18T11:13:17.371Z,97947.22
2023-02-18T11:15:59.911Z,97944.69
2023-02-18T11:18:26.480Z,97939.91
2023-02-18T11:21:01.243Z,97936.97
2023-02-18T11:23:27.926Z,97925.69
2023-02-18T11:26:00.535Z,97918.34
2023-02-18T11:28:36.358Z,97907.81
2023-02-18T11:31:05.204Z,97904.16
2023-02-18T11:33:44.586Z,97899.41
2023-02-18T11:36:16.843Z,97892.09
2023-02-18T11:38:54.341Z,97886.94
2023-02-18T11:41:34.039Z,97875.84
2023-02-18T11:44:03.040Z,97867.09
2023-02-18T11:46:29.786Z,97866.38
2023-02-18T11:48:56.893Z,97861.81
2023-02-18T11:51:27.018Z,97855.28
2023-02-18T11:54:06.277Z,97846.50
2023-02-18T11:56:35.468Z,97847.06
2023-02-18T11:59:04.013Z,97832.63
2023-02-18T12:01:43.810Z,97833.75
2023-02-18T12:04:21.690Z,97824.28
2023-02-18T12:06:48.354Z,97826.00
2023-02-18T12:09:28.082Z,97814.16
2023-02-18T12:12:27.172Z,97813.72
2023-02-18T12:14:57.396Z,97809.56
2023-02-18T12:17:49.359Z,97817.06
2023-02-18T12:20:28.263Z,97801.97
2023-02-18T12:23:09.716Z,97790.19
2023-02-18T12:26:04.264Z,97788.88
2023-02-18T12:28:57.485Z,97773.50
2023-02-18T12:31:56.568Z,97773.91
2023-02-18T12:34:35.715Z,97757.06
2023-02-18T12:37:14.792Z,97759.38
2023-02-18T12:40:00.190Z,97759.69
2023-02-18T12:42:56.840Z,97756.25
2023-02-18T12:45:42.583Z,97746.13
2023-02-18T12:48:09.265Z,97749.63
2023-02-18T12:50:52.578Z,97738.31
2023-02-18T12:53:44.544Z,97735.97
2023-02-18T12:56:47.987Z,97731.59
2023-02-18T12:59:39.659Z,97741.00
2023-02-18T13:02:28.142Z,97725.69
2023-02-18T13:05:26.247Z,97721.81
2023-02-18T13:08:11.620Z,97719.88
2023-02-18T13:10:47.334Z,97713.88
2023-02-18T13:13:20.643Z,97724.97
2023-02-18T13:15:55.954Z,97709.38
2023-02-18T13:18:30.289Z,97709.03
2023-02-18T13:21:05.589Z,97710.97
2023-02-18T13:23:39.507Z,97705.28
2023-02-18T13:26:11.602Z,97698.25
2023-02-18T13:28:46.872Z,97697.41
2023-02-18T13:31:34.379Z,97679.09
2023-02-18T13:34:13.291Z,97685.53
2023-02-18T13:36:55.090Z,97672.25
2023-02-18T13:39:24.600Z,97665.59
2023-02-18T13:42:09.778Z,97674.53
2023-02-18T13:44:39.042Z,97664.09
2023-02-18T13:47:08.971Z,97661.47
2023-02-18T13:49:40.613Z,97656.00
2023-02-18T13:52:16.972Z,97655.22
2023-02-18T13:54:46.515Z,97651.81
2023-02-18T13:57:20.982Z,97648.75
2023-02-18T13:59:49.675Z,97650.44
2023-02-18T14:02:25.412Z,97647.66
2023-02-18T14:04:58.335Z,97648.09
2023-02-18T14:07:25.367Z,97636.41
2023-02-18T14:09:54.122Z,97639.28
2023-02-18T14:12:26.826Z,97642.13
2023-02-18T14:14:53.563Z,97636.56
2023-02-18T14:17:20.072Z,97628.31
2023-02-18T14:20:16.600Z,97620.41
2023-02-18T14:22:51.489Z,97615.97
2023-02-18T14:25:21.107Z,97613.81
2023-02-18T14:27:51.828Z,97624.66
2023-02-18T14:30:29.193Z,97620.50
2023-02-18T14:33:01.226Z,97622.78
2023-02-18T14:35:40.043Z,97613.41
2023-02-18T14:38:28.110Z,97620.22
2023-02-18T14:41:00.654Z,97609.00
2023-02-18T14:43:32.883Z,97613.91
2023-02-18T14:46:09.811Z,97601.91
2023-02-18T14:49:04.193Z,97618.47
2023-02-18T14:51:33.945Z,97603.22
2023-02-18T14:54:13.408Z,97602.91
2023-02-18T14:56:52.380Z,97591.22
2023-02-18T14:59:20.977Z,97591.91
2023-02-18T15:01:48.353Z,97595.06
2023-02-18T15:04:15.997Z,97595.44
2023-02-18T15:06:42.751Z,97589.94
2023-02-18T15:09:19.752Z,97585.63
2023-02-18T15:11:55.044Z,97585.97
2023-02-18T15:14:27.056Z,97598.47
2023-02-18T15:16:53.976Z,97585.53
2023-02-18T15:19:24.796Z,97594.13
2023-02-18T15:21:54.084Z,97583.16
2023-02-18T15:24:38.134Z,97566.16
2023-02-18T15:27:32.021Z,97572.28
2023-02-18T15:30:12.907Z,97573.63
2023-02-18T15:32:39.638Z,97575.59
2023-02-18T15:35:16.710Z,97584.06
2023-02-18T15:37:51.717Z,97580.75
2023-02-18T15:40:18.864Z,97577.56
2023-02-18T15:42:56.707Z,97571.63
2023-02-18T15:45:42.882Z,97562.81
2023-02-18T15:48:33.147Z,97555.75
2023-02-18T15:51:15.880Z,97564.81
2023-02-18T15:53:47.063Z,97566.50
2023-02-18T15:56:22.011Z,97573.56
2023-02-18T15:58:48.677Z,97569.72
2023-02-18T16:01:27.545Z,97567.81
2023-02-18T16:03:55.859Z,97573.84
2023-02-18T16:06:28.429Z,97568.69
2023-02-18T16:09:03.444Z,97563.75
2023-02-18T16:11:35.147Z,97558.59
2023-02-18T16:14:02.222Z,97554.03
2023-02-18T16:16:39.468Z,97555.34
2023-02-18T16:19:06.164Z,97553.72
2023-02-18T16:21:37.880Z,97555.13
2023-02-18T16:24:23.342Z,97549.44
2023-02-18T16:26:51.590Z,97550.66
2023-02-18T16:29:23.501Z,97544.81
2023-02-18T16:31:50.252Z,97548.94
2023-02-18T16:34:19.178Z,97550.81
2023-02-18T16:37:04.323Z,97561.16
2023-02-18T16:39:33.885Z,97575.44
2023-02-18T16:42:00.448Z,97560.53
2023-02-18T16:44:27.030Z,97549.91
2023-02-18T16:46:53.797Z,97550.31
2023-02-18T16:49:20.853Z,97560.94
2023-02-18T16:51:48.800Z,97545.06
2023-02-18T16:54:16.053Z,97554.66
2023-02-18T16:56:42.622Z,97550.38
2023-02-18T16:59:09.210Z,97555.03
2023-02-18T17:01:38.505Z,97552.06
2023-02-18T17:04:06.057Z,97558.28
2023-02-18T17:06:33.315Z,97552.63
2023-02-18T17:09:00.609Z,97563.59
2023-02-18T17:11:36.384Z,97565.03
2023-02-18T17:14:05.109Z,97565.06
2023-02-18T17:16:31.905Z,97563.66
2023-02-18T17:18:58.484Z,97586.72
2023-02-18T17:21:25.764Z,97576.53
2023-02-18T17:23:52.862Z,97562.28
2023-02-18T17:26:25.005Z,97591.31
2023-02-18T17:28:53.063Z,97578.31
2023-02-18T17:31:26.503Z,97588.69
2023-02-18T17:33:59.082Z,97580.13
2023-02-18T17:36:25.805Z,97578.41
2023-02-18T17:38:52.873Z,97593.63
2023-02-18T17:41:19.760Z,97594.22
2023-02-18T17:43:46.341Z,97592.06
2023-02-18T17:46:15.767Z,97596.94
2023-02-18T17:48:43.401Z,97611.28
2023-02-18T17:51:38.280Z,97595.69
2023-02-18T17:54:17.026Z,97636.78
2023-02-18T17:56:44.277Z,97612.63
2023-02-18T17:59:11.056Z,97650.41
2023-02-18T18:01:37.720Z,97629.25
2023-02-18T18:04:04.517Z,97638.09
2023-02-18T18:06:32.312Z,97644.63
2023-02-18T18:08:58.903Z,97630.66
2023-02-18T18:11:25.934Z,97622.28
2023-02-18T18:13:53.139Z,97619.03
2023-02-18T18:16:20.343Z,97617.88
2023-02-18T18:18:47.165Z,97623.16
2023-02-18T18:21:23.194Z,97625.06
2023-02-18T18:23:50.640Z,97618.91
2023-02-18T18:26:17.383Z,97616.56
2023-02-18T18:28:43.986Z,97630.03
2023-02-18T18:31:15.980Z,97626.09
2023-02-18T18:33:43.568Z,97613.06
2023-02-18T18:36:10.464Z,97626.59
2023-02-18T18:38:37.198Z,97629.94
2023-02-18T18:41:03.882Z,97640.81
2023-02-18T18:43:33.185Z,97635.81
2023-02-18T18:46:00.336Z,97639.38
2023-02-18T18:48:27.192Z,97639.38
2023-02-18T18:50:54.413Z,97620.94
2023-02-18T18:53:26.880Z,97635.00
2023-02-18T18:55:56.150Z,97627.13
2023-02-18T18:58:24.556Z,97625.25
2023-02-18T19:00:59.491Z,97640.06
2023-02-18T19:03:28.153Z,97646.91
2023-02-18T19:05:55.509Z,97651.50
2023-02-18T19:08:22.700Z,97645.56
2023-02-18T19:10:54.709Z,97661.63
2023-02-18T19:13:21.745Z,97674.75
2023-02-18T19:15:49.903Z,97683.22
2023-02-18T19:18:19.365Z,97684.78
2023-02-18T19:20:47.355Z,97677.78
2023-02-18T19:23:14.662Z,97686.94
2023-02-18T19:25:41.721Z,97678.53
2023-02-18T19:28:10.222Z,97688.13
2023-02-18T19:30:37.786Z,97691.13
2023-02-18T19:33:05.984Z,97688.53
2023-02-18T19:35:34.248Z,97686.22
2023-02-18T19:38:01.170Z,97690.34
2023-02-18T19:40:30.516Z,97690.03
2023-02-18T19:42:57.226Z,97686.19
2023-02-18T19:45:24.357Z,97683.59
2023-02-18T19:47:55.555Z,97685.66
2023-02-18T19:50:23.071Z,97679.41
2023-02-18T19:52:52.566Z,97670.44
2023-02-18T19:55:19.388Z,97687.81
2023-02-18T19:57:46.080Z,97679.97
2023-02-18T20:00:14.684Z,97684.13
2023-02-18T20:02:41.577Z,97687.91
2023-02-18T20:05:10.056Z,97706.97
2023-02-18T20:07:36.849Z,97722.50
2023-02-18T20:10:05.111Z,97724.78
2023-02-18T20:12:32.287Z,97721.03
2023-02-18T20:14:59.111Z,97744.06
2023-02-18T20:17:25.731Z,97743.13
2023-02-18T20:19:52.356Z,97749.88
2023-02-18T20:22:18.962Z,97737.34
2023-02-18T20:24:45.739Z,97729.53
2023-02-18T20:27:12.751Z,97732.63
2023-02-18T20:29:39.549Z,97734.50
2023-02-18T20:32:06.831Z,97734.09
2023-02-18T20:34:33.681Z,97750.47
2023-02-18T20:37:01.191Z,97744.06
2023-02-18T20:39:28.114Z,97752.91
2023-02-18T20:41:55.010Z,97746.13
2023-02-18T20:44:21.816Z,97740.13
2023-02-18T20:46:49.841Z,97754.44
2023-02-18T20:49:20.423Z,97753.03
2023-02-18T20:51:47.580Z,97736.59
2023-02-18T20:54:19.411Z,97739.19
2023-02-18T20:56:50.000Z,97742.47
2023-02-18T20:59:20.416Z,97745.72
2023-02-18T21:01:48.399Z,97739.31
2023-02-18T21:04:19.662Z,97738.75
2023-02-18T21:06:47.485Z,97757.84
2023-02-18T21:09:15.684Z,97752.94
2023-02-18T21:11:43.809Z,97750.16
2023-02-18T21:14:11.656Z,97755.28
2023-02-18T21:16:41.188Z,97753.16
2023-02-18T21:19:11.087Z,97747.22
2023-02-18T21:21:38.025Z,97766.25
2023-02-18T21:24:05.055Z,97751.31
2023-02-18T21:26:32.046Z,97760.25
2023-02-18T21:29:05.709Z,97765.16
2023-02-18T21:31:36.004Z,97772.22
2023-02-18T21:34:04.176Z,97773.06
2023-02-18T21:36:31.774Z,97771.94
2023-02-18T21:39:01.970Z,97767.94
2023-02-18T21:41:29.878Z,97772.69
2023-02-18T21:43:56.916Z,97767.31
2023-02-18T21:46:29.521Z,97766.06
2023-02-18T21:49:02.654Z,97764.88
2023-02-18T21:51:49.459Z,97758.44
2023-02-18T21:54:17.043Z,97765.25
2023-02-18T21:56:43.631Z,97765.81
2023-02-18T21:59:10.340Z,97769.25
2023-02-18T22:01:37.007Z,97767.75
2023-02-18T22:04:03.901Z,97776.56
2023-02-18T22:06:31.647Z,97784.66
2023-02-18T22:09:01.691Z,97779.84
2023-02-18T22:11:29.896Z,97779.84
2023-02-18T22:13:57.145Z,97772.47
2023-02-18T22:16:25.776Z,97772.59
2023-02-18T22:18:52.418Z,97787.34
2023-02-18T22:21:20.994Z,97785.97
2023-02-18T22:23:47.745Z,97797.16
2023-02-18T22:26:15.164Z,97790.50
2023-02-18T22:28:41.965Z,97802.56
2023-02-18T22:31:10.560Z,97788.81
2023-02-18T22:33:37.710Z,97783.63
2023-02-18T22:36:09.154Z,97782.13
2023-02-18T22:38:37.927Z,97793.66
2023-02-18T22:41:06.599Z,97788.19
2023-02-18T22:43:33.302Z,97782.28
2023-02-18T22:46:04.443Z,97793.44
2023-02-18T22:48:33.522Z,97786.94
2023-02-18T22:51:18.179Z,97804.38
2023-02-18T22:53:45.017Z,97803.63
2023-02-18T22:56:18.237Z,97801.72
2023-02-18T22:58:46.756Z,97798.38
2023-02-18T23:01:31.207Z,97804.22
2023-02-18T23:04:02.854Z,97801.53
2023-02-18T23:06:29.582Z,97804.88
2023-02-18T23:08:56.526Z,97807.00
2023-02-18T23:11:23.594Z,97799.69
2023-02-18T23:14:16.525Z,97811.75
2023-02-18T23:17:01.865Z,97815.53
2023-02-18T23:19:30.814Z,97818.63
2023-02-18T23:21:57.565Z,97815.53
2023-02-18T23:24:24.196Z,97828.59
2023-02-18T23:26:51.387Z,97812.03
2023-02-18T23:29:18.375Z,97828.31
2023-02-18T23:31:45.048Z,97828.50
2023-02-18T23:34:14.408Z,97822.97
2023-02-18T23:36:41.456Z,97823.63
2023-02-18T23:39:09.609Z,97823.97
2023-02-18T23:41:36.995Z,97836.22
2023-02-18T23:44:05.952Z,97825.84
2023-02-18T23:46:33.324Z,97818.97
2023-02-18T23:49:00.331Z,97819.97
2023-02-18T23:51:27.428Z,97819.31
2023-02-18T23:53:54.045Z,97818.66
2023-02-18T23:56:22.092Z,97812.63
2023-02-18T23:58:52.336Z,97818.22
